createdAt,value
2022-10-29T00:00:56.454Z,5.80
2022-10-29T00:03:24.799Z,5.40
2022-10-29T00:06:04.664Z,5.77
2022-10-29T00:08:35.028Z,5.00
2022-10-29T00:11:13.817Z,6.20
2022-10-29T00:13:41.607Z,4.90
2022-10-29T00:16:15.586Z,4.80
2022-10-29T00:18:43.042Z,5.37
2022-10-29T00:21:17.634Z,5.17
2022-10-29T00:23:44.766Z,6.13
2022-10-29T00:26:12.394Z,5.30
2022-10-29T00:28:39.415Z,5.77
2022-10-29T00:31:10.116Z,4.50
2022-10-29T00:33:36.985Z,6.20
2022-10-29T00:36:07.721Z,5.57
2022-10-29T00:38:35.692Z,6.40
2022-10-29T00:41:05.041Z,5.80
2022-10-29T00:43:37.830Z,5.67
2022-10-29T00:46:19.096Z,5.50
2022-10-29T00:48:49.711Z,5.23
2022-10-29T00:51:17.880Z,6.30
2022-10-29T00:53:56.986Z,5.47
2022-10-29T00:56:26.980Z,5.23
2022-10-29T00:58:54.487Z,5.80
2022-10-29T01:01:21.569Z,6.10
2022-10-29T01:03:49.022Z,6.80
2022-10-29T01:06:15.970Z,6.07
2022-10-29T01:08:42.878Z,5.73
2022-10-29T01:11:31.528Z,5.40
2022-10-29T01:14:12.068Z,6.27
2022-10-29T01:17:06.445Z,5.10
2022-10-29T01:20:20.234Z,5.20
2022-10-29T01:23:40.435Z,5.00
2022-10-29T01:26:51.573Z,5.20
2022-10-29T01:29:39.195Z,5.60
2022-10-29T01:32:22.621Z,5.63
2022-10-29T01:35:17.009Z,5.80
2022-10-29T01:38:14.672Z,5.33
2022-10-29T01:40:50.025Z,5.13
2022-10-29T01:43:39.309Z,5.73
2022-10-29T01:46:19.192Z,5.97
2022-10-29T01:48:53.099Z,5.47
2022-10-29T01:51:29.112Z,6.77
2022-10-29T01:53:58.181Z,6.00
2022-10-29T01:56:25.239Z,5.30
2022-10-29T01:58:57.455Z,5.60
2022-10-29T02:01:41.874Z,5.97
2022-10-29T02:04:17.346Z,7.50
2022-10-29T02:07:17.930Z,5.77
2022-10-29T02:10:20.014Z,6.93
2022-10-29T02:12:50.824Z,5.43
2022-10-29T02:15:44.009Z,5.87
2022-10-29T02:18:11.227Z,6.43
2022-10-29T02:20:43.456Z,6.70
2022-10-29T02:23:10.591Z,6.80
2022-10-29T02:25:37.703Z,8.10
2022-10-29T02:28:05.337Z,6.83
2022-10-29T02:30:32.309Z,6.20
2022-10-29T02:32:59.571Z,6.40
2022-10-29T02:35:26.773Z,7.03
2022-10-29T02:37:53.680Z,6.23
2022-10-29T02:40:20.597Z,5.87
2022-10-29T02:42:47.473Z,6.57
2022-10-29T02:45:14.386Z,6.60
2022-10-29T02:47:41.282Z,7.00
2022-10-29T02:50:09.099Z,6.87
2022-10-29T02:52:36.085Z,6.37
2022-10-29T02:55:03.530Z,6.33
2022-10-29T02:57:30.436Z,6.50
2022-10-29T02:59:57.302Z,6.33
2022-10-29T03:02:24.353Z,7.53
2022-10-29T03:04:51.373Z,5.93
2022-10-29T03:07:18.297Z,7.27
2022-10-29T03:09:45.190Z,7.83
2022-10-29T03:12:12.070Z,6.50
2022-10-29T03:14:38.937Z,6.40
2022-10-29T03:17:05.916Z,7.37
2022-10-29T03:19:32.900Z,6.80
2022-10-29T03:21:59.751Z,7.00
2022-10-29T03:24:26.657Z,5.80
2022-10-29T03:26:53.533Z,7.10
2022-10-29T03:29:20.411Z,7.40
2022-10-29T03:31:47.293Z,6.23
2022-10-29T03:34:14.147Z,6.40
2022-10-29T03:36:41.062Z,7.17
2022-10-29T03:39:08.129Z,6.83
2022-10-29T03:41:35.010Z,7.03
2022-10-29T03:44:02.194Z,7.43
2022-10-29T03:46:29.151Z,7.80
2022-10-29T03:48:56.074Z,7.50
2022-10-29T03:51:22.994Z,6.87
2022-10-29T03:53:49.974Z,7.20
2022-10-29T03:56:16.970Z,6.67
2022-10-29T03:58:43.825Z,7.90
2022-10-29T04:01:11.387Z,7.27
2022-10-29T04:03:42.406Z,8.07
2022-10-29T04:06:13.261Z,8.63
2022-10-29T04:08:40.988Z,6.90
2022-10-29T04:11:13.415Z,8.00
2022-10-29T04:13:40.770Z,7.50
2022-10-29T04:16:07.969Z,7.50
2022-10-29T04:18:35.017Z,6.97
2022-10-29T04:23:06.175Z,7.07
2022-10-29T04:29:24.239Z,7.00
2022-10-29T04:31:51.341Z,8.17
2022-10-29T04:34:18.320Z,6.27
2022-10-29T04:36:45.282Z,6.93
2022-10-29T04:39:12.181Z,8.47
2022-10-29T04:41:39.088Z,7.30
2022-10-29T04:44:05.960Z,9.20
2022-10-29T04:46:32.869Z,7.70
2022-10-29T04:48:59.876Z,7.60
2022-10-29T04:51:27.514Z,8.57
2022-10-29T04:53:54.486Z,7.30
2022-10-29T04:56:21.427Z,8.07
2022-10-29T04:58:52.612Z,9.03
2022-10-29T05:01:19.834Z,8.13
2022-10-29T05:03:47.001Z,7.80
2022-10-29T05:06:13.992Z,6.77
2022-10-29T05:08:40.889Z,6.40
2022-10-29T05:11:08.011Z,8.60
2022-10-29T05:13:35.369Z,7.53
2022-10-29T05:16:02.399Z,7.57
2022-10-29T05:18:29.458Z,7.40
2022-10-29T05:20:57.379Z,7.40
2022-10-29T05:23:24.906Z,8.03
2022-10-29T05:25:52.568Z,7.90
2022-10-29T05:28:22.153Z,7.13
2022-10-29T05:30:51.633Z,8.20
2022-10-29T05:33:22.593Z,6.90
2022-10-29T05:35:50.211Z,7.23
2022-10-29T05:38:17.654Z,8.60
2022-10-29T05:40:45.653Z,7.57
2022-10-29T05:43:17.218Z,7.10
2022-10-29T05:45:44.838Z,8.00
2022-10-29T05:50:45.560Z,7.50
2022-10-29T05:53:14.849Z,8.43
2022-10-29T05:55:42.535Z,7.67
2022-10-29T05:58:14.041Z,8.03
2022-10-29T06:00:44.333Z,8.50
2022-10-29T06:03:22.413Z,7.10
2022-10-29T06:05:50.909Z,8.27
2022-10-29T06:08:18.392Z,7.90
2022-10-29T06:10:45.499Z,8.63
2022-10-29T06:13:19.516Z,8.10
2022-10-29T06:15:48.473Z,8.10
2022-10-29T06:18:16.441Z,9.10
2022-10-29T06:20:46.457Z,8.83
2022-10-29T06:23:13.406Z,10.03
2022-10-29T06:25:40.803Z,19.70
2022-10-29T06:28:15.343Z,8.57
2022-10-29T06:30:50.655Z,9.70
2022-10-29T06:33:20.705Z,11.03
2022-10-29T06:35:48.345Z,9.80
2022-10-29T06:38:15.924Z,7.40
2022-10-29T06:40:43.566Z,7.90
2022-10-29T06:43:12.538Z,8.83
2022-10-29T06:45:39.636Z,7.50
2022-10-29T06:48:07.311Z,7.63
2022-10-29T06:50:34.646Z,7.10
2022-10-29T06:53:07.357Z,6.30
2022-10-29T06:55:35.508Z,7.40
2022-10-29T06:58:05.108Z,7.60
2022-10-29T07:00:33.305Z,5.90
2022-10-29T07:03:00.975Z,7.83
2022-10-29T07:05:28.010Z,5.97
2022-10-29T07:08:00.108Z,5.90
2022-10-29T07:10:29.908Z,5.60
2022-10-29T07:12:57.219Z,6.03
2022-10-29T07:15:27.554Z,6.23
2022-10-29T07:18:03.514Z,6.00
2022-10-29T07:20:34.411Z,6.50
2022-10-29T07:23:02.364Z,5.77
2022-10-29T07:25:31.157Z,6.20
2022-10-29T07:28:13.443Z,6.70
2022-10-29T07:30:41.155Z,5.87
2022-10-29T07:33:08.676Z,6.23
2022-10-29T07:35:35.730Z,5.73
2022-10-29T07:38:09.225Z,6.53
2022-10-29T07:40:48.229Z,6.30
2022-10-29T07:43:16.362Z,6.50
2022-10-29T07:45:46.457Z,31.83
2022-10-29T07:48:13.709Z,10.20
2022-10-29T07:50:40.703Z,6.63
2022-10-29T07:53:08.912Z,6.63
2022-10-29T07:55:36.543Z,6.50
2022-10-29T07:58:07.120Z,6.73
2022-10-29T08:00:37.109Z,5.43
2022-10-29T08:03:04.714Z,6.17
2022-10-29T08:05:32.216Z,6.47
2022-10-29T08:07:59.935Z,7.07
2022-10-29T08:10:28.253Z,6.33
2022-10-29T08:12:59.109Z,6.30
2022-10-29T08:15:28.199Z,7.13
2022-10-29T08:17:55.646Z,5.07
2022-10-29T08:20:25.672Z,5.90
2022-10-29T08:22:52.834Z,5.67
2022-10-29T08:25:19.849Z,5.70
2022-10-29T08:30:25.781Z,7.70
2022-10-29T08:32:52.742Z,17.20
2022-10-29T08:35:19.686Z,7.10
2022-10-29T08:37:46.764Z,5.13
2022-10-29T08:40:37.361Z,6.37
2022-10-29T08:43:22.867Z,7.40
2022-10-29T08:45:55.486Z,5.17
2022-10-29T08:48:28.256Z,5.50
2022-10-29T08:51:10.772Z,6.23
2022-10-29T08:53:45.461Z,6.93
2022-10-29T08:56:27.286Z,7.00
2022-10-29T08:59:02.374Z,10.87
2022-10-29T09:01:30.198Z,6.80
2022-10-29T09:03:57.327Z,6.20
2022-10-29T09:06:27.228Z,6.23
2022-10-29T09:12:11.882Z,41.63
2022-10-29T09:15:04.544Z,7.77
2022-10-29T09:18:17.458Z,6.67
2022-10-29T09:21:22.291Z,6.83
2022-10-29T09:26:59.342Z,6.00
2022-10-29T09:29:54.915Z,7.27
2022-10-29T09:32:39.061Z,5.80
2022-10-29T09:35:19.350Z,4.90
2022-10-29T09:37:58.690Z,5.97
2022-10-29T09:40:43.113Z,6.00
2022-10-29T09:43:32.366Z,5.40
2022-10-29T09:46:31.263Z,6.40
2022-10-29T09:49:08.836Z,4.53
2022-10-29T09:52:17.139Z,4.93
2022-10-29T09:54:44.248Z,5.10
2022-10-29T09:57:23.357Z,6.77
2022-10-29T10:00:02.384Z,6.93
2022-10-29T10:02:49.662Z,6.23
2022-10-29T10:05:25.857Z,5.47
2022-10-29T10:08:14.121Z,6.00
2022-10-29T10:11:07.654Z,5.30
2022-10-29T10:13:52.290Z,7.07
2022-10-29T10:16:28.927Z,6.93
2022-10-29T10:18:56.114Z,6.30
2022-10-29T10:21:30.562Z,5.37
2022-10-29T10:23:59.019Z,5.10
2022-10-29T10:26:45.047Z,6.17
2022-10-29T10:34:34.397Z,5.20
2022-10-29T10:37:10.269Z,5.23
2022-10-29T10:39:39.911Z,7.50
2022-10-29T10:42:29.160Z,5.93
2022-10-29T10:44:57.262Z,5.30
2022-10-29T10:47:30.799Z,14.83
2022-10-29T10:50:34.954Z,9.70
2022-10-29T10:53:06.819Z,5.83
2022-10-29T10:55:40.362Z,6.13
2022-10-29T10:58:13.802Z,6.50
2022-10-29T11:01:14.413Z,7.63
2022-10-29T11:03:55.536Z,5.30
2022-10-29T11:06:36.351Z,9.97
2022-10-29T11:09:27.337Z,8.33
2022-10-29T11:12:11.772Z,5.20
2022-10-29T11:14:49.003Z,5.43
2022-10-29T11:17:31.619Z,5.70
2022-10-29T11:20:06.086Z,5.70
2022-10-29T11:22:49.911Z,6.40
2022-10-29T11:25:26.683Z,5.33
2022-10-29T11:29:05.886Z,6.37
2022-10-29T11:31:48.550Z,7.97
2022-10-29T11:34:26.976Z,6.50
2022-10-29T11:37:23.730Z,6.40
2022-10-29T11:40:13.680Z,6.73
2022-10-29T11:42:41.260Z,5.50
2022-10-29T11:45:21.070Z,6.60
2022-10-29T11:48:26.311Z,5.93
2022-10-29T11:51:05.393Z,6.30
2022-10-29T11:53:44.563Z,5.30
2022-10-29T11:56:22.727Z,6.23
2022-10-29T11:59:07.744Z,6.20
2022-10-29T12:01:58.456Z,9.33
2022-10-29T12:04:38.152Z,6.77
2022-10-29T12:07:47.818Z,6.07
2022-10-29T12:10:24.627Z,9.23
2022-10-29T12:16:15.053Z,7.60
2022-10-29T12:18:50.485Z,6.37
2022-10-29T12:22:18.157Z,6.53
2022-10-29T12:25:04.872Z,6.77
2022-10-29T12:28:19.236Z,6.60
2022-10-29T12:31:13.683Z,6.53
2022-10-29T12:33:57.962Z,5.93
2022-10-29T12:36:37.937Z,6.50
2022-10-29T12:39:14.564Z,13.30
2022-10-29T12:41:49.094Z,10.60
2022-10-29T12:44:43.884Z,7.20
2022-10-29T12:47:25.722Z,7.00
2022-10-29T12:50:14.386Z,6.40
2022-10-29T12:52:58.066Z,6.47
2022-10-29T12:55:25.623Z,6.37
2022-10-29T12:57:52.486Z,7.40
2022-10-29T13:00:55.088Z,6.90
2022-10-29T13:10:27.054Z,6.00
2022-10-29T13:13:05.647Z,7.37
2022-10-29T13:15:42.525Z,6.00
2022-10-29T13:18:12.428Z,6.30
2022-10-29T13:20:43.650Z,7.97
2022-10-29T13:23:22.691Z,7.60
2022-10-29T13:25:53.763Z,7.07
2022-10-29T13:28:20.945Z,6.50
2022-10-29T13:31:13.620Z,7.23
2022-10-29T13:33:40.475Z,6.83
2022-10-29T13:36:16.516Z,6.33
2022-10-29T13:39:06.130Z,7.70
2022-10-29T13:41:43.382Z,6.50
2022-10-29T13:44:12.502Z,6.40
2022-10-29T13:47:06.110Z,6.70
2022-10-29T13:49:37.553Z,6.23
2022-10-29T13:52:24.212Z,7.13
2022-10-29T13:54:56.636Z,6.70
2022-10-29T13:57:52.558Z,6.63
2022-10-29T14:00:21.221Z,7.03
2022-10-29T14:02:53.674Z,6.70
2022-10-29T14:05:31.618Z,6.47
2022-10-29T14:08:07.669Z,6.90
2022-10-29T14:10:48.015Z,6.60
2022-10-29T14:13:19.285Z,6.73
2022-10-29T14:16:07.023Z,6.73
2022-10-29T14:18:47.405Z,7.23
2022-10-29T14:21:27.649Z,7.50
2022-10-29T14:24:09.827Z,7.10
2022-10-29T14:26:39.506Z,7.80
2022-10-29T14:29:25.747Z,7.60
2022-10-29T14:32:13.754Z,12.50
2022-10-29T14:34:41.758Z,8.10
2022-10-29T14:37:23.102Z,9.17
2022-10-29T14:39:58.751Z,15.33
2022-10-29T14:42:32.375Z,8.87
2022-10-29T14:47:35.601Z,7.40
2022-10-29T14:50:23.587Z,7.50
2022-10-29T14:52:59.147Z,7.80
2022-10-29T14:55:37.633Z,8.70
2022-10-29T14:58:19.601Z,9.00
2022-10-29T15:00:59.850Z,8.37
2022-10-29T15:03:31.689Z,8.30
2022-10-29T15:06:19.331Z,9.40
2022-10-29T15:09:02.182Z,9.80
2022-10-29T15:11:49.131Z,8.07
2022-10-29T15:14:31.164Z,8.47
2022-10-29T15:16:59.080Z,8.53
2022-10-29T15:19:26.666Z,9.43
2022-10-29T15:21:53.622Z,9.33
2022-10-29T15:24:23.433Z,8.93
2022-10-29T15:26:56.865Z,10.87
2022-10-29T15:29:33.627Z,9.43
2022-10-29T15:32:02.550Z,10.33
2022-10-29T15:34:34.905Z,11.30
2022-10-29T15:37:18.343Z,10.10
2022-10-29T15:39:57.478Z,8.17
2022-10-29T15:42:32.131Z,10.57
2022-10-29T15:45:08.475Z,8.53
2022-10-29T15:47:38.374Z,8.80
2022-10-29T15:50:10.528Z,9.43
2022-10-29T15:52:42.491Z,9.70
2022-10-29T15:55:27.791Z,9.63
2022-10-29T15:58:02.070Z,10.33
2022-10-29T16:00:29.931Z,9.00
2022-10-29T16:03:20.734Z,9.63
2022-10-29T16:06:15.174Z,11.67
2022-10-29T16:08:50.452Z,9.67
2022-10-29T16:11:22.714Z,7.90
2022-10-29T16:13:54.393Z,9.70
2022-10-29T16:16:24.788Z,9.20
2022-10-29T16:18:52.753Z,9.77
2022-10-29T16:21:25.533Z,9.90
2022-10-29T16:23:52.886Z,9.57
2022-10-29T16:26:22.842Z,9.67
2022-10-29T16:28:51.987Z,9.40
2022-10-29T16:31:20.851Z,10.13
2022-10-29T16:36:22.703Z,9.37
2022-10-29T16:38:49.652Z,8.23
2022-10-29T16:41:18.791Z,9.53
2022-10-29T16:43:46.148Z,10.50
2022-10-29T16:46:14.599Z,11.23
2022-10-29T16:48:41.803Z,11.40
2022-10-29T16:51:08.955Z,10.70
2022-10-29T16:53:35.980Z,11.43
2022-10-29T16:56:03.475Z,11.77
2022-10-29T16:58:30.536Z,12.73
2022-10-29T17:01:06.007Z,11.40
2022-10-29T17:03:34.308Z,12.47
2022-10-29T17:06:07.399Z,12.00
2022-10-29T17:08:35.159Z,11.20
2022-10-29T17:11:06.026Z,11.10
2022-10-29T17:13:34.564Z,11.80
2022-10-29T17:16:08.972Z,15.57
2022-10-29T17:18:35.906Z,11.07
2022-10-29T17:21:03.260Z,10.70
2022-10-29T17:23:31.898Z,11.30
2022-10-29T17:26:00.328Z,11.83
2022-10-29T17:28:28.573Z,11.87
2022-10-29T17:30:55.437Z,11.50
2022-10-29T17:33:22.321Z,11.60
2022-10-29T17:35:49.218Z,11.50
2022-10-29T17:38:16.079Z,11.90
2022-10-29T17:40:46.252Z,13.40
2022-10-29T17:43:13.479Z,11.90
2022-10-29T17:45:43.587Z,12.10
2022-10-29T17:48:10.523Z,11.97
2022-10-29T17:50:37.458Z,11.67
2022-10-29T17:53:04.607Z,12.10
2022-10-29T17:55:31.528Z,13.00
2022-10-29T17:57:58.818Z,11.40
2022-10-29T18:00:26.106Z,12.37
2022-10-29T18:02:53.083Z,13.00
2022-10-29T18:05:20.200Z,12.77
2022-10-29T18:07:47.233Z,12.57
2022-10-29T18:10:14.193Z,12.70
2022-10-29T18:12:41.139Z,13.50
2022-10-29T18:15:08.966Z,12.50
2022-10-29T18:17:36.581Z,11.80
2022-10-29T18:20:04.095Z,14.00
2022-10-29T18:22:31.106Z,12.90
2022-10-29T18:24:58.479Z,15.10
2022-10-29T18:27:25.746Z,12.77
2022-10-29T18:29:52.750Z,12.90
2022-10-29T18:32:20.027Z,13.60
2022-10-29T18:34:46.945Z,14.40
2022-10-29T18:37:13.956Z,13.60
2022-10-29T18:39:40.867Z,14.43
2022-10-29T18:42:07.716Z,13.60
2022-10-29T18:44:34.917Z,13.40
2022-10-29T18:47:02.151Z,16.80
2022-10-29T18:49:29.172Z,15.50
2022-10-29T18:51:56.064Z,14.60
2022-10-29T18:54:23.062Z,14.93
2022-10-29T18:56:50.085Z,13.50
2022-10-29T18:59:17.104Z,15.23
2022-10-29T19:01:44.109Z,15.47
2022-10-29T19:04:15.346Z,15.00
2022-10-29T19:06:42.597Z,15.67
2022-10-29T19:09:11.266Z,14.80
2022-10-29T19:11:38.691Z,16.53
2022-10-29T19:14:09.718Z,15.70
2022-10-29T19:16:36.706Z,16.63
2022-10-29T19:19:11.447Z,14.67
2022-10-29T19:21:39.493Z,14.90
2022-10-29T19:24:07.956Z,15.60
2022-10-29T19:26:36.196Z,15.30
2022-10-29T19:29:05.213Z,14.37
2022-10-29T19:31:34.160Z,15.97
2022-10-29T19:34:05.449Z,17.97
2022-10-29T19:36:34.408Z,15.47
2022-10-29T19:39:01.643Z,17.20
2022-10-29T19:41:29.376Z,15.97
2022-10-29T19:44:02.721Z,18.67
2022-10-29T19:46:30.647Z,16.30
2022-10-29T19:48:58.395Z,16.53
2022-10-29T19:51:25.855Z,17.47
2022-10-29T19:53:52.981Z,18.00
2022-10-29T19:56:21.966Z,18.80
2022-10-29T19:58:49.515Z,17.73
2022-10-29T20:01:18.701Z,18.50
2022-10-29T20:03:46.840Z,17.37
2022-10-29T20:06:14.946Z,18.50
2022-10-29T20:08:41.916Z,20.70
2022-10-29T20:11:09.003Z,18.10
2022-10-29T20:13:36.666Z,18.47
2022-10-29T20:18:39.035Z,22.53
2022-10-29T20:21:07.204Z,22.40
2022-10-29T20:23:34.303Z,20.93
2022-10-29T20:26:02.147Z,22.87
2022-10-29T20:28:29.085Z,19.37
2022-10-29T20:31:19.316Z,18.33
2022-10-29T20:34:02.295Z,18.80
2022-10-29T20:36:32.388Z,20.70
2022-10-29T20:38:59.766Z,18.93
2022-10-29T20:41:27.613Z,19.27
2022-10-29T20:43:57.994Z,18.73
2022-10-29T20:46:26.121Z,20.57
2022-10-29T20:48:53.351Z,21.17
2022-10-29T20:51:20.329Z,21.30
2022-10-29T20:53:47.829Z,21.87
2022-10-29T20:56:16.368Z,22.20
2022-10-29T20:58:43.979Z,22.23
2022-10-29T21:01:14.250Z,21.97
2022-10-29T21:03:41.935Z,20.37
2022-10-29T21:06:15.719Z,21.03
2022-10-29T21:08:44.499Z,21.23
2022-10-29T21:11:13.068Z,23.90
2022-10-29T21:13:40.649Z,21.63
2022-10-29T21:16:23.858Z,19.57
2022-10-29T21:19:00.601Z,20.73
2022-10-29T21:21:29.240Z,21.10
2022-10-29T21:23:57.512Z,20.30
2022-10-29T21:26:26.945Z,20.10
2022-10-29T21:28:54.707Z,19.67
2022-10-29T21:31:22.985Z,21.70
2022-10-29T21:33:54.108Z,20.20
2022-10-29T21:36:21.847Z,20.87
2022-10-29T21:38:49.176Z,21.10
2022-10-29T21:41:17.086Z,20.97
2022-10-29T21:43:44.026Z,22.13
2022-10-29T21:46:11.108Z,20.10
2022-10-29T21:48:38.017Z,19.40
2022-10-29T21:51:11.261Z,19.93
2022-10-29T21:53:38.364Z,20.60
2022-10-29T21:56:08.330Z,22.10
2022-10-29T21:58:35.288Z,21.70
2022-10-29T22:01:09.431Z,19.90
2022-10-29T22:03:41.365Z,22.30
2022-10-29T22:06:20.938Z,20.87
2022-10-29T22:08:53.327Z,20.00
2022-10-29T22:11:20.205Z,20.00
2022-10-29T22:13:47.202Z,20.73
2022-10-29T22:16:14.138Z,18.80
2022-10-29T22:18:41.505Z,21.27
2022-10-29T22:21:13.232Z,19.47
2022-10-29T22:23:49.564Z,18.83
2022-10-29T22:26:18.642Z,19.40
2022-10-29T22:28:47.188Z,19.20
2022-10-29T22:31:15.539Z,18.80
2022-10-29T22:33:43.139Z,19.20
2022-10-29T22:36:17.035Z,18.87
2022-10-29T22:38:44.321Z,18.53
2022-10-29T22:41:14.935Z,18.13
2022-10-29T22:43:42.641Z,18.30
2022-10-29T22:46:12.014Z,17.80
2022-10-29T22:48:39.050Z,18.33
2022-10-29T22:51:28.104Z,20.77
2022-10-29T22:53:55.370Z,18.53
2022-10-29T22:56:25.944Z,18.10
2022-10-29T22:58:53.477Z,19.17
2022-10-29T23:01:23.875Z,19.27
2022-10-29T23:03:51.534Z,18.87
2022-10-29T23:06:22.162Z,21.00
2022-10-29T23:08:54.852Z,18.23
2022-10-29T23:11:25.297Z,17.60
2022-10-29T23:14:00.593Z,19.93
2022-10-29T23:16:33.280Z,17.97
2022-10-29T23:19:03.640Z,19.07
2022-10-29T23:21:31.511Z,18.23
2022-10-29T23:23:58.804Z,18.40
2022-10-29T23:26:26.504Z,17.80
2022-10-29T23:28:53.814Z,18.10
2022-10-29T23:31:27.179Z,18.40
2022-10-29T23:33:56.207Z,16.73
2022-10-29T23:36:25.200Z,18.17
2022-10-29T23:39:01.006Z,19.30
2022-10-29T23:41:29.735Z,18.50
2022-10-29T23:43:57.503Z,20.60
2022-10-29T23:46:24.605Z,18.27
2022-10-29T23:48:51.495Z,18.87
2022-10-29T23:51:18.503Z,18.80
2022-10-29T23:53:45.570Z,19.37
2022-10-29T23:56:12.470Z,17.90
2022-10-29T23:58:39.397Z,18.90
